createdAt,value
2023-04-11T00:01:32.556Z,99695.28
2023-04-11T00:04:01.553Z,99695.53
2023-04-11T00:06:33.949Z,99688.34
2023-04-11T00:09:03.800Z,99692.34
2023-04-11T00:11:33.227Z,99682.00
2023-04-11T00:14:02.012Z,99682.66
2023-04-11T00:16:34.078Z,99683.16
2023-04-11T00:19:03.018Z,99685.31
2023-04-11T00:21:31.806Z,99682.84
2023-04-11T00:24:00.110Z,99682.53
2023-04-11T00:26:28.850Z,99669.09
2023-04-11T00:28:57.585Z,99681.88
2023-04-11T00:31:27.148Z,99680.00
2023-04-11T00:33:56.682Z,99675.41
2023-04-11T00:36:27.350Z,99676.19
2023-04-11T00:38:58.675Z,99677.53
2023-04-11T00:41:28.705Z,99682.19
2023-04-11T00:43:58.647Z,99681.75
2023-04-11T00:46:28.274Z,99680.84
2023-04-11T00:48:57.747Z,99680.56
2023-04-11T00:51:27.370Z,99683.81
2023-04-11T00:53:56.310Z,99679.31
2023-04-11T00:56:25.142Z,99681.03
2023-04-11T00:58:54.560Z,99680.22
2023-04-11T01:01:25.328Z,99673.03
2023-04-11T01:03:55.191Z,99670.03
2023-04-11T01:06:25.115Z,99662.34
2023-04-11T01:08:54.964Z,99667.53
2023-04-11T01:11:25.247Z,99661.03
2023-04-11T01:13:54.382Z,99653.31
2023-04-11T01:16:23.231Z,99652.88
2023-04-11T01:18:52.455Z,99644.97
2023-04-11T01:21:22.616Z,99652.47
2023-04-11T01:23:53.052Z,99641.53
2023-04-11T01:26:22.814Z,99642.47
2023-04-11T01:28:52.591Z,99637.47
2023-04-11T01:31:22.190Z,99639.94
2023-04-11T01:33:51.066Z,99638.28
2023-04-11T01:36:20.042Z,99639.50
2023-04-11T01:38:49.636Z,99638.13
2023-04-11T01:41:21.277Z,99631.16
2023-04-11T01:43:50.686Z,99623.31
2023-04-11T01:46:20.824Z,99625.09
2023-04-11T01:48:57.143Z,99620.00
2023-04-11T01:51:26.231Z,99602.91
2023-04-11T01:53:54.242Z,99615.84
2023-04-11T01:56:23.277Z,99608.41
2023-04-11T01:58:52.106Z,99610.81
2023-04-11T02:01:21.926Z,99604.59
2023-04-11T02:03:50.881Z,99612.31
2023-04-11T02:06:19.859Z,99603.00
2023-04-11T02:08:48.641Z,99594.84
2023-04-11T02:11:17.411Z,99595.06
2023-04-11T02:13:46.818Z,99587.69
2023-04-11T02:16:15.717Z,99600.75
2023-04-11T02:18:46.533Z,99594.19
2023-04-11T02:21:16.109Z,99592.38
2023-04-11T02:23:45.750Z,99593.13
2023-04-11T02:26:14.664Z,99592.53
2023-04-11T02:28:43.491Z,99588.88
2023-04-11T02:31:13.157Z,99590.38
2023-04-11T02:33:41.952Z,99582.44
2023-04-11T02:36:12.769Z,99584.59
2023-04-11T02:38:42.423Z,99584.47
2023-04-11T02:41:11.997Z,99588.13
2023-04-11T02:43:41.551Z,99578.19
2023-04-11T02:46:13.115Z,99582.13
2023-04-11T02:48:42.387Z,99573.25
2023-04-11T02:51:11.328Z,99586.09
2023-04-11T02:53:41.359Z,99578.91
2023-04-11T02:56:19.282Z,99578.28
2023-04-11T02:58:48.540Z,99552.03
2023-04-11T03:01:18.540Z,99570.03
2023-04-11T03:03:47.460Z,99567.22
2023-04-11T03:06:16.584Z,99569.09
2023-04-11T03:08:46.972Z,99566.72
2023-04-11T03:11:16.704Z,99569.00
2023-04-11T03:13:45.499Z,99563.44
2023-04-11T03:16:14.997Z,99560.34
2023-04-11T03:18:43.768Z,99565.56
2023-04-11T03:21:12.733Z,99563.03
2023-04-11T03:23:41.616Z,99568.09
2023-04-11T03:26:11.352Z,99563.84
2023-04-11T03:28:40.068Z,99562.19
2023-04-11T03:31:08.944Z,99560.81
2023-04-11T03:33:36.811Z,99564.16
2023-04-11T03:36:06.104Z,99554.47
2023-04-11T03:38:34.856Z,99566.50
2023-04-11T03:41:04.154Z,99570.75
2023-04-11T03:43:33.113Z,99579.41
2023-04-11T03:46:01.901Z,99569.19
2023-04-11T03:48:31.243Z,99567.34
2023-04-11T03:51:00.027Z,99568.53
2023-04-11T03:53:29.403Z,99572.00
2023-04-11T03:55:58.277Z,99569.59
2023-04-11T03:58:27.334Z,99560.13
2023-04-11T04:00:56.273Z,99563.34
2023-04-11T04:03:25.309Z,99568.91
2023-04-11T04:05:54.218Z,99565.13
2023-04-11T04:08:23.837Z,99569.16
2023-04-11T04:10:52.596Z,99566.00
2023-04-11T04:13:22.209Z,99565.28
2023-04-11T04:15:52.633Z,99571.31
2023-04-11T04:18:22.206Z,99575.09
2023-04-11T04:20:51.777Z,99573.28
2023-04-11T04:23:19.712Z,99574.72
2023-04-11T04:25:51.191Z,99570.63
2023-04-11T04:28:22.646Z,99567.56
2023-04-11T04:30:54.552Z,99579.69
2023-04-11T04:33:26.410Z,99581.53
2023-04-11T04:36:00.258Z,99575.22
2023-04-11T04:38:29.906Z,99579.13
2023-04-11T04:40:58.672Z,99583.69
2023-04-11T04:43:32.567Z,99583.31
2023-04-11T04:46:02.235Z,99580.44
2023-04-11T04:48:31.844Z,99583.00
2023-04-11T04:51:00.664Z,99580.00
2023-04-11T04:53:29.455Z,99579.34
2023-04-11T04:55:59.991Z,99575.63
2023-04-11T04:58:29.656Z,99575.28
2023-04-11T05:00:58.506Z,99572.16
2023-04-11T05:03:28.309Z,99574.03
2023-04-11T05:05:59.812Z,99569.53
2023-04-11T05:08:28.601Z,99575.69
2023-04-11T05:10:57.366Z,99567.63
2023-04-11T05:13:26.957Z,99565.72
2023-04-11T05:15:55.778Z,99567.31
2023-04-11T05:18:24.530Z,99570.81
2023-04-11T05:20:54.053Z,99565.97
2023-04-11T05:23:22.867Z,99566.22
2023-04-11T05:25:51.794Z,99566.38
2023-04-11T05:28:21.385Z,99564.69
2023-04-11T05:30:51.150Z,99566.91
2023-04-11T05:33:23.355Z,99568.53
2023-04-11T05:35:52.800Z,99561.19
2023-04-11T05:38:22.386Z,99554.16
2023-04-11T05:40:52.294Z,99547.34
2023-04-11T05:43:21.822Z,99546.50
2023-04-11T05:45:50.936Z,99544.94
2023-04-11T05:48:20.745Z,99533.97
2023-04-11T05:50:52.095Z,99538.22
2023-04-11T05:53:21.340Z,99535.66
2023-04-11T05:55:50.878Z,99534.41
2023-04-11T05:58:20.490Z,99538.53
2023-04-11T06:00:50.066Z,99543.84
2023-04-11T06:03:19.090Z,99554.56
2023-04-11T06:05:48.818Z,99556.31
2023-04-11T06:08:17.810Z,99547.88
2023-04-11T06:10:46.593Z,99548.50
2023-04-11T06:13:16.245Z,99540.09
2023-04-11T06:15:45.098Z,99541.72
2023-04-11T06:18:13.945Z,99536.72
2023-04-11T06:20:42.673Z,99538.91
2023-04-11T06:23:11.325Z,99537.69
2023-04-11T06:25:40.045Z,99526.16
2023-04-11T06:28:08.831Z,99534.56
2023-04-11T06:30:37.576Z,99536.16
2023-04-11T06:33:07.087Z,99532.72
2023-04-11T06:35:36.868Z,99537.84
2023-04-11T06:38:06.437Z,99535.59
2023-04-11T06:40:35.549Z,99547.00
2023-04-11T06:43:05.124Z,99554.84
2023-04-11T06:45:33.859Z,99558.63
2023-04-11T06:48:02.760Z,99545.13
2023-04-11T06:50:31.473Z,99548.53
2023-04-11T06:52:59.421Z,99542.88
2023-04-11T06:55:28.053Z,99543.81
2023-04-11T06:57:56.700Z,99534.19
2023-04-11T07:00:25.501Z,99535.00
2023-04-11T07:02:54.439Z,99539.97
2023-04-11T07:05:23.247Z,99541.97
2023-04-11T07:07:51.917Z,99549.75
2023-04-11T07:10:20.818Z,99544.97
2023-04-11T07:12:49.527Z,99538.44
2023-04-11T07:15:18.379Z,99544.94
2023-04-11T07:17:51.429Z,99545.28
2023-04-11T07:20:21.390Z,99534.53
2023-04-11T07:22:49.982Z,99557.09
2023-04-11T07:25:22.732Z,99545.94
2023-04-11T07:27:51.770Z,99543.69
2023-04-11T07:30:20.427Z,99533.34
2023-04-11T07:32:49.052Z,99532.03
2023-04-11T07:35:18.301Z,99516.22
2023-04-11T07:37:47.638Z,99513.00
2023-04-11T07:40:15.757Z,99511.50
2023-04-11T07:42:46.396Z,99502.84
2023-04-11T07:45:15.050Z,99498.91
2023-04-11T07:47:43.671Z,99491.34
2023-04-11T07:50:12.510Z,99493.69
2023-04-11T07:52:41.226Z,99497.47
2023-04-11T07:55:10.981Z,99498.75
2023-04-11T07:57:39.465Z,99498.31
2023-04-11T08:00:11.658Z,99498.34
2023-04-11T08:02:41.027Z,99502.72
2023-04-11T08:05:10.349Z,99491.41
2023-04-11T08:07:38.994Z,99492.78
2023-04-11T08:10:08.809Z,99487.34
2023-04-11T08:12:36.625Z,99490.03
2023-04-11T08:15:05.244Z,99489.53
2023-04-11T08:17:38.193Z,99486.97
2023-04-11T08:20:10.878Z,99487.03
2023-04-11T08:22:41.961Z,99488.78
2023-04-11T08:25:14.751Z,99481.72
2023-04-11T08:27:43.363Z,99467.56
2023-04-11T08:30:12.960Z,99475.94
2023-04-11T08:32:42.641Z,99463.34
2023-04-11T08:35:11.048Z,99463.19
2023-04-11T08:37:39.822Z,99458.56
2023-04-11T08:40:09.620Z,99457.50
2023-04-11T08:42:37.402Z,99458.66
2023-04-11T08:45:09.496Z,99461.75
2023-04-11T08:47:38.334Z,99451.50
2023-04-11T08:50:08.195Z,99448.34
2023-04-11T08:52:39.274Z,99432.63
2023-04-11T08:55:08.687Z,99431.09
2023-04-11T08:57:38.476Z,99434.88
2023-04-11T09:00:12.268Z,99418.84
2023-04-11T09:03:04.434Z,99406.25
2023-04-11T09:05:38.806Z,99401.94
2023-04-11T09:08:10.600Z,99399.34
2023-04-11T09:10:45.374Z,99396.81
2023-04-11T09:13:27.171Z,99395.22
2023-04-11T09:16:14.628Z,99386.47
2023-04-11T09:18:47.750Z,99381.13
2023-04-11T09:21:18.899Z,99382.13
2023-04-11T09:23:47.657Z,99380.59
2023-04-11T09:26:29.685Z,99377.38
2023-04-11T09:28:58.635Z,99374.09
2023-04-11T09:31:45.773Z,99371.88
2023-04-11T09:34:16.249Z,99376.06
2023-04-11T09:36:56.283Z,99382.75
2023-04-11T09:39:28.660Z,99378.91
2023-04-11T09:41:57.641Z,99369.66
2023-04-11T09:44:39.047Z,99369.50
2023-04-11T09:47:07.774Z,99356.13
2023-04-11T09:49:37.166Z,99349.25
2023-04-11T09:52:06.785Z,99350.00
2023-04-11T09:54:35.950Z,99353.84
2023-04-11T09:57:06.725Z,99349.41
2023-04-11T09:59:39.505Z,99335.69
2023-04-11T10:02:08.497Z,99343.47
2023-04-11T10:04:36.512Z,99329.91
2023-04-11T10:07:17.237Z,99330.13
2023-04-11T10:09:47.463Z,99329.91
2023-04-11T10:12:32.480Z,99327.53
2023-04-11T10:15:08.644Z,99323.63
2023-04-11T10:17:37.576Z,99324.72
2023-04-11T10:20:48.465Z,99317.69
2023-04-11T10:23:17.821Z,99323.81
2023-04-11T10:26:01.540Z,99304.44
2023-04-11T10:28:39.675Z,99306.09
2023-04-11T10:31:17.751Z,99299.97
2023-04-11T10:34:25.036Z,99298.16
2023-04-11T10:37:08.089Z,99303.03
2023-04-11T10:39:51.507Z,99306.94
2023-04-11T10:42:34.762Z,99303.81
2023-04-11T10:45:25.293Z,99298.22
2023-04-11T10:48:13.184Z,99287.84
2023-04-11T10:50:44.835Z,99277.41
2023-04-11T10:53:37.221Z,99284.56
2023-04-11T10:56:06.513Z,99278.75
2023-04-11T10:58:39.851Z,99271.63
2023-04-11T11:01:26.026Z,99275.69
2023-04-11T11:04:01.798Z,99263.38
2023-04-11T11:06:31.257Z,99259.81
2023-04-11T11:09:00.426Z,99248.25
2023-04-11T11:11:29.149Z,99259.13
2023-04-11T11:13:57.998Z,99245.13
2023-04-11T11:16:27.741Z,99249.88
2023-04-11T11:18:59.809Z,99253.50
2023-04-11T11:21:30.310Z,99237.38
2023-04-11T11:24:02.035Z,99233.16
2023-04-11T11:26:40.455Z,99229.59
2023-04-11T11:29:11.017Z,99234.06
2023-04-11T11:31:48.208Z,99224.41
2023-04-11T11:34:34.998Z,99212.38
2023-04-11T11:37:04.904Z,99214.91
2023-04-11T11:39:34.302Z,99218.69
2023-04-11T11:42:03.703Z,99215.91
2023-04-11T11:44:33.157Z,99215.94
2023-04-11T11:47:18.210Z,99212.53
2023-04-11T11:49:56.832Z,99200.16
2023-04-11T11:52:40.943Z,99200.31
2023-04-11T11:55:32.576Z,99199.19
2023-04-11T11:58:03.050Z,99194.00
2023-04-11T12:00:40.254Z,99195.41
2023-04-11T12:03:10.365Z,99191.84
2023-04-11T12:05:39.465Z,99187.91
2023-04-11T12:08:09.142Z,99191.19
2023-04-11T12:10:42.338Z,99188.00
2023-04-11T12:13:21.390Z,99188.53
2023-04-11T12:15:58.132Z,99191.72
2023-04-11T12:18:29.048Z,99190.94
2023-04-11T12:20:58.884Z,99184.94
2023-04-11T12:23:27.557Z,99177.22
2023-04-11T12:25:56.192Z,99189.88
2023-04-11T12:28:24.884Z,99179.75
2023-04-11T12:30:53.615Z,99177.38
2023-04-11T12:33:22.295Z,99173.34
2023-04-11T12:35:50.873Z,99175.75
2023-04-11T12:38:18.670Z,99179.38
2023-04-11T12:40:47.240Z,99168.88
2023-04-11T12:43:16.058Z,99166.91
2023-04-11T12:45:44.640Z,99169.22
2023-04-11T12:48:14.031Z,99148.78
2023-04-11T12:50:42.666Z,99157.31
2023-04-11T12:53:11.454Z,99156.50
2023-04-11T12:55:40.163Z,99156.72
2023-04-11T12:58:09.680Z,99155.38
2023-04-11T13:00:38.340Z,99159.50
2023-04-11T13:03:07.354Z,99159.69
2023-04-11T13:05:37.379Z,99155.13
2023-04-11T13:08:06.136Z,99161.53
2023-04-11T13:10:34.774Z,99151.34
2023-04-11T13:13:17.047Z,99144.31
2023-04-11T13:15:46.788Z,99138.22
2023-04-11T13:18:15.867Z,99131.84
2023-04-11T13:20:44.705Z,99133.44
2023-04-11T13:23:14.971Z,99133.47
2023-04-11T13:25:45.917Z,99125.03
2023-04-11T13:28:14.638Z,99125.09
2023-04-11T13:30:43.442Z,99120.09
2023-04-11T13:33:12.154Z,99109.63
2023-04-11T13:35:40.786Z,99113.75
2023-04-11T13:38:11.412Z,99099.97
2023-04-11T13:40:42.984Z,99091.28
2023-04-11T13:43:11.823Z,99090.00
2023-04-11T13:45:40.596Z,99099.78
2023-04-11T13:48:09.373Z,99084.63
2023-04-11T13:50:39.582Z,99080.50
2023-04-11T13:53:08.294Z,99069.28
2023-04-11T13:55:36.956Z,99070.63
2023-04-11T13:58:05.669Z,99067.59
2023-04-11T14:00:36.388Z,99068.84
2023-04-11T14:03:05.283Z,99066.28
2023-04-11T14:05:35.818Z,99061.41
2023-04-11T14:08:04.947Z,99058.00
2023-04-11T14:10:34.776Z,99056.97
2023-04-11T14:13:03.787Z,99053.88
2023-04-11T14:15:32.695Z,99052.22
2023-04-11T14:18:01.892Z,99048.88
2023-04-11T14:20:30.898Z,99049.53
2023-04-11T14:22:59.596Z,99044.19
2023-04-11T14:25:28.310Z,99050.03
2023-04-11T14:27:56.980Z,99049.22
2023-04-11T14:30:25.806Z,99052.41
2023-04-11T14:32:54.594Z,99044.78
2023-04-11T14:35:23.438Z,99041.84
2023-04-11T14:37:52.074Z,99036.56
2023-04-11T14:40:20.760Z,99043.69
2023-04-11T14:42:50.279Z,99036.09
2023-04-11T14:45:19.027Z,99030.72
2023-04-11T14:47:47.749Z,99038.84
2023-04-11T14:50:16.508Z,99030.03
2023-04-11T14:52:48.373Z,99037.94
2023-04-11T14:55:17.321Z,99033.72
2023-04-11T14:57:54.185Z,99033.22
2023-04-11T15:00:25.120Z,99039.69
2023-04-11T15:02:57.608Z,99031.38
2023-04-11T15:05:26.863Z,99028.75
2023-04-11T15:07:55.696Z,99028.19
2023-04-11T15:10:26.669Z,99030.75
2023-04-11T15:12:55.419Z,99031.28
2023-04-11T15:15:24.155Z,99019.88
2023-04-11T15:18:28.725Z,99026.88
2023-04-11T15:21:00.227Z,99019.44
2023-04-11T15:23:29.485Z,99018.75
2023-04-11T15:26:01.707Z,99030.75
2023-04-11T15:28:39.015Z,99025.94
2023-04-11T15:31:13.038Z,99034.75
2023-04-11T15:33:42.147Z,99027.88
2023-04-11T15:36:10.963Z,99029.09
2023-04-11T15:38:38.752Z,99027.13
2023-04-11T15:41:07.778Z,99025.59
2023-04-11T15:43:36.536Z,99018.66
2023-04-11T15:46:06.891Z,99025.19
2023-04-11T15:48:35.610Z,99022.31
2023-04-11T15:51:12.049Z,99026.03
2023-04-11T15:53:41.114Z,99034.88
2023-04-11T15:56:11.036Z,99040.56
2023-04-11T15:58:39.718Z,99042.25
2023-04-11T16:01:21.145Z,99042.81
2023-04-11T16:03:51.778Z,99042.97
2023-04-11T16:06:20.708Z,99039.97
2023-04-11T16:08:51.222Z,99044.19
2023-04-11T16:11:21.061Z,99045.28
2023-04-11T16:13:50.646Z,99048.47
2023-04-11T16:16:18.444Z,99055.47
2023-04-11T16:18:49.085Z,99055.63
2023-04-11T16:21:16.883Z,99056.19
2023-04-11T16:23:44.768Z,99059.16
2023-04-11T16:26:13.072Z,99069.22
2023-04-11T16:28:42.596Z,99070.03
2023-04-11T16:31:10.495Z,99066.94
2023-04-11T16:33:38.279Z,99071.31
2023-04-11T16:36:06.569Z,99073.53
2023-04-11T16:38:34.289Z,99078.22
2023-04-11T16:41:02.155Z,99084.63
2023-04-11T16:43:29.938Z,99082.91
2023-04-11T16:45:58.710Z,99080.69
2023-04-11T16:48:26.810Z,99085.25
2023-04-11T16:50:55.422Z,99088.72
2023-04-11T16:53:23.186Z,99089.34
2023-04-11T16:55:52.851Z,99085.78
2023-04-11T16:58:20.636Z,99081.97
2023-04-11T17:00:49.367Z,99079.84
2023-04-11T17:03:20.516Z,99084.63
2023-04-11T17:05:48.744Z,99087.91
2023-04-11T17:08:18.489Z,99083.59
2023-04-11T17:10:46.412Z,99082.28
2023-04-11T17:13:14.989Z,99084.22
2023-04-11T17:15:42.811Z,99084.22
2023-04-11T17:18:10.606Z,99073.72
2023-04-11T17:20:39.250Z,99072.09
2023-04-11T17:23:07.665Z,99068.41
2023-04-11T17:25:35.442Z,99070.13
2023-04-11T17:28:03.691Z,99071.63
2023-04-11T17:30:32.445Z,99074.25
2023-04-11T17:33:00.961Z,99073.28
2023-04-11T17:35:29.540Z,99069.78
2023-04-11T17:37:57.454Z,99066.72
2023-04-11T17:40:25.976Z,99060.56
2023-04-11T17:42:57.883Z,99069.59
2023-04-11T17:45:25.650Z,99069.00
2023-04-11T17:47:53.628Z,99066.59
2023-04-11T17:50:21.832Z,99065.81
2023-04-11T17:52:49.637Z,99071.81
2023-04-11T17:55:19.982Z,99077.00
2023-04-11T17:57:53.580Z,99079.22
2023-04-11T18:00:26.577Z,99069.00
2023-04-11T18:02:58.093Z,99067.53
2023-04-11T18:05:31.876Z,99077.13
2023-04-11T18:08:00.976Z,99067.53
2023-04-11T18:10:30.762Z,99071.59
2023-04-11T18:12:59.393Z,99066.53
2023-04-11T18:15:28.981Z,99072.78
2023-04-11T18:17:59.214Z,99060.19
2023-04-11T18:20:29.358Z,99069.00
2023-04-11T18:22:57.773Z,99068.63
2023-04-11T18:25:25.770Z,99076.16
2023-04-11T18:27:53.709Z,99058.50
2023-04-11T18:30:24.426Z,99063.28
2023-04-11T18:32:55.968Z,99064.91
2023-04-11T18:35:29.271Z,99072.34
2023-04-11T18:37:58.229Z,99057.31
2023-04-11T18:40:28.823Z,99050.09
2023-04-11T18:42:58.715Z,99059.91
2023-04-11T18:45:28.749Z,99060.66
2023-04-11T18:47:56.896Z,99068.19
2023-04-11T18:50:25.956Z,99063.50
2023-04-11T18:52:56.157Z,99065.03
2023-04-11T18:55:28.941Z,99071.84
2023-04-11T18:57:59.879Z,99057.69
2023-04-11T19:00:29.754Z,99067.66
2023-04-11T19:02:59.993Z,99074.91
2023-04-11T19:05:29.518Z,99063.38
2023-04-11T19:08:00.890Z,99065.44
2023-04-11T19:10:29.713Z,99063.13
2023-04-11T19:12:59.264Z,99064.28
2023-04-11T19:15:27.971Z,99058.78
2023-04-11T19:17:57.795Z,99053.88
2023-04-11T19:20:28.411Z,99036.03
2023-04-11T19:22:57.468Z,99038.31
2023-04-11T19:25:26.454Z,99027.66
2023-04-11T19:27:58.083Z,99026.81
2023-04-11T19:30:29.302Z,99027.16
2023-04-11T19:32:59.748Z,99026.34
2023-04-11T19:35:29.809Z,99030.00
2023-04-11T19:38:01.061Z,99027.53
2023-04-11T19:40:31.048Z,99026.75
2023-04-11T19:43:01.097Z,99030.97
2023-04-11T19:45:31.758Z,99024.97
2023-04-11T19:48:02.603Z,99029.69
2023-04-11T19:50:31.760Z,99023.66
2023-04-11T19:53:02.083Z,99024.09
2023-04-11T19:55:31.847Z,99018.94
2023-04-11T19:58:00.848Z,99019.59
2023-04-11T20:00:35.591Z,99018.19
2023-04-11T20:03:07.784Z,99018.72
2023-04-11T20:05:36.306Z,99021.53
2023-04-11T20:08:05.078Z,99000.16
2023-04-11T20:10:34.519Z,99002.66
2023-04-11T20:13:04.030Z,98996.19
2023-04-11T20:15:32.529Z,98996.19
2023-04-11T20:18:01.339Z,99011.56
2023-04-11T20:20:29.973Z,99009.09
2023-04-11T20:22:58.659Z,98998.38
2023-04-11T20:25:27.360Z,98992.31
2023-04-11T20:27:55.161Z,99001.25
2023-04-11T20:30:24.261Z,99002.66
2023-04-11T20:32:54.529Z,98984.81
2023-04-11T20:35:23.678Z,99001.31
2023-04-11T20:37:54.233Z,99003.47
2023-04-11T20:40:22.235Z,98999.94
2023-04-11T20:42:50.012Z,99003.75
2023-04-11T20:45:25.911Z,98998.44
2023-04-11T20:47:55.179Z,99001.53
2023-04-11T20:50:22.947Z,99012.13
2023-04-11T20:52:52.765Z,99014.41
2023-04-11T20:55:21.410Z,99001.13
2023-04-11T20:57:49.263Z,99002.19
2023-04-11T21:00:18.690Z,98996.41
2023-04-11T21:02:50.732Z,98987.59
2023-04-11T21:05:22.584Z,98995.53
2023-04-11T21:07:55.108Z,98993.38
2023-04-11T21:10:23.841Z,98986.50
2023-04-11T21:12:52.046Z,98986.97
2023-04-11T21:15:22.572Z,98986.81
2023-04-11T21:17:50.746Z,98981.16
2023-04-11T21:20:20.455Z,98980.09
2023-04-11T21:22:53.077Z,98974.19
2023-04-11T21:25:24.271Z,98967.00
2023-04-11T21:27:52.171Z,98957.03
2023-04-11T21:30:20.969Z,98942.25
2023-04-11T21:32:49.918Z,98941.16
2023-04-11T21:35:17.879Z,98936.34
2023-04-11T21:37:48.939Z,98937.41
2023-04-11T21:40:17.066Z,98931.50
2023-04-11T21:42:46.064Z,98935.50
2023-04-11T21:45:14.022Z,98931.78
2023-04-11T21:47:41.960Z,98924.13
2023-04-11T21:50:11.607Z,98928.59
2023-04-11T21:52:40.530Z,98925.34
2023-04-11T21:55:10.097Z,98923.97
2023-04-11T21:57:38.821Z,98923.63
2023-04-11T22:00:11.209Z,98928.03
2023-04-11T22:02:41.325Z,98924.03
2023-04-11T22:05:09.888Z,98918.56
2023-04-11T22:07:46.768Z,98920.91
2023-04-11T22:10:24.023Z,98930.41
2023-04-11T22:12:54.664Z,98925.75
2023-04-11T22:15:24.676Z,98931.63
2023-04-11T22:17:54.725Z,98926.63
2023-04-11T22:20:22.603Z,98924.34
2023-04-11T22:22:50.357Z,98933.38
2023-04-11T22:25:18.543Z,98933.72
2023-04-11T22:27:47.096Z,98925.72
2023-04-11T22:30:16.691Z,98940.13
2023-04-11T22:32:47.130Z,98943.09
2023-04-11T22:35:15.754Z,98940.78
2023-04-11T22:37:44.996Z,98937.59
2023-04-11T22:40:14.562Z,98929.75
2023-04-11T22:42:42.268Z,98927.56
2023-04-11T22:45:11.106Z,98925.19
2023-04-11T22:47:40.315Z,98931.31
2023-04-11T22:50:09.665Z,98930.94
2023-04-11T22:52:37.990Z,98934.72
2023-04-11T22:55:07.556Z,98928.94
2023-04-11T22:57:36.893Z,98921.59
2023-04-11T23:00:09.911Z,98925.69
2023-04-11T23:02:40.162Z,98912.31
2023-04-11T23:05:11.168Z,98908.22
2023-04-11T23:07:39.766Z,98901.72
2023-04-11T23:10:09.318Z,98899.81
2023-04-11T23:12:38.069Z,98904.03
2023-04-11T23:15:06.817Z,98901.06
2023-04-11T23:17:34.654Z,98895.72
2023-04-11T23:20:08.995Z,98889.34
2023-04-11T23:22:37.180Z,98886.38
2023-04-11T23:25:05.470Z,98889.44
2023-04-11T23:27:33.794Z,98892.75
2023-04-11T23:30:02.530Z,98906.31
2023-04-11T23:32:30.376Z,98891.44
2023-04-11T23:34:58.251Z,98889.34
2023-04-11T23:37:27.545Z,98887.81
2023-04-11T23:39:56.208Z,98895.63
2023-04-11T23:42:24.076Z,98891.25
2023-04-11T23:44:52.307Z,98904.22
2023-04-11T23:47:20.266Z,98901.47
2023-04-11T23:49:48.019Z,98872.34
2023-04-11T23:52:15.812Z,98883.63
2023-04-11T23:54:43.715Z,98882.56
2023-04-11T23:57:12.719Z,98863.03
2023-04-11T23:59:41.327Z,98880.94
